Time;durP1;ratioP1;P1;durP2;ratioP2;P2;SDS_P1;SDS_P2;PMS_P1;PMS_P2;Temp;Humidity;BMP_temperature;BMP_pressure;BME280_temperature;BME280_humidity;BME280_pressure;Samples;Min_cycle;Max_cycle;Signal;HPM_P1;HPM_P2
2023/01/28 00:03:10;;;;;;;4.70;2.60;;;0.70;99.90;;;;;;15201123;23;20111;-36
2023/01/28 00:09:12;;;;;;;4.78;2.40;;;0.80;99.90;;;;;;15177766;23;20100;-37
2023/01/28 00:15:14;;;;;;;5.68;2.53;;;0.80;99.90;;;;;;15197072;23;20471;-36
2023/01/28 00:21:16;;;;;;;5.18;2.65;;;0.80;99.90;;;;;;15197773;23;20100;-37
2023/01/28 00:27:18;;;;;;;4.68;2.80;;;0.80;99.90;;;;;;15196111;23;20100;-36
2023/01/28 00:33:20;;;;;;;4.28;2.58;;;0.70;99.90;;;;;;15170444;23;20037;-36
2023/01/28 00:39:24;;;;;;;3.22;2.35;;;0.70;99.90;;;;;;15202649;23;20100;-36
2023/01/28 00:45:26;;;;;;;5.50;2.87;;;0.80;99.90;;;;;;15196354;23;20488;-36
2023/01/28 00:51:28;;;;;;;3.55;2.67;;;0.80;99.90;;;;;;15194058;23;20045;-36
2023/01/28 00:57:30;;;;;;;5.13;2.60;;;0.70;99.90;;;;;;15201450;23;20042;-36
2023/01/28 01:03:32;;;;;;;5.53;2.85;;;0.70;99.90;;;;;;15197327;23;20105;-36
2023/01/28 01:09:34;;;;;;;6.70;3.50;;;0.80;99.90;;;;;;15190152;23;20061;-36
2023/01/28 01:15:36;;;;;;;3.70;2.00;;;0.70;99.90;;;;;;15172819;23;20032;-37
2023/01/28 01:21:38;;;;;;;5.28;2.30;;;0.60;99.90;;;;;;15198800;23;20154;-36
2023/01/28 01:27:40;;;;;;;3.28;2.00;;;0.80;99.90;;;;;;15169392;23;20053;-36
2023/01/28 01:33:44;;;;;;;5.88;2.33;;;0.80;99.90;;;;;;15198779;23;20347;-36
2023/01/28 01:39:46;;;;;;;4.70;2.23;;;0.90;99.90;;;;;;15201870;23;20025;-36
2023/01/28 01:45:59;;;;;;;3.33;2.30;;;0.80;99.90;;;;;;15199661;23;20583;-37
2023/01/28 01:52:12;;;;;;;3.13;1.80;;;0.60;99.90;;;;;;15202175;23;20049;-36
2023/01/28 01:58:17;;;;;;;4.43;2.00;;;0.60;99.90;;;;;;15206757;23;20033;-37
2023/01/28 02:04:26;;;;;;;3.22;2.50;;;0.70;99.90;;;;;;15177835;23;20118;-36
2023/01/28 02:10:28;;;;;;;4.85;2.38;;;0.70;99.90;;;;;;15205445;23;20025;-36
2023/01/28 02:16:31;;;;;;;4.57;3.20;;;0.60;99.90;;;;;;15206581;23;20050;-37
2023/01/28 02:22:54;;;;;;;4.00;2.75;;;0.70;99.90;;;;;;15199098;23;20355;-36
2023/01/28 02:29:11;;;;;;;3.35;2.20;;;0.70;99.90;;;;;;15202727;23;20376;-37
2023/01/28 02:35:23;;;;;;;4.75;2.58;;;0.60;99.90;;;;;;15198340;23;20396;-36
2023/01/28 02:41:36;;;;;;;7.00;3.20;;;0.60;99.90;;;;;;15202171;23;20487;-36
2023/01/28 02:54:33;;;;;;;3.17;2.53;;;0.70;99.90;;;;;;15202854;23;20033;-36
2023/01/28 03:00:47;;;;;;;5.43;2.90;;;0.70;99.90;;;;;;15166664;23;20026;-37
2023/01/28 03:06:54;;;;;;;11.55;4.28;;;0.50;99.90;;;;;;15197691;23;20067;-36
2023/01/28 03:38:33;;;;;;;6.40;2.38;;;0.70;99.90;;;;;;15203136;23;20033;-36
2023/01/28 03:44:54;;;;;;;4.68;2.08;;;0.60;99.90;;;;;;15198105;23;20030;-37
2023/01/28 03:50:56;;;;;;;4.93;2.72;;;0.60;99.90;;;;;;15198055;23;20455;-36
2023/01/28 03:56:58;;;;;;;5.43;2.10;;;0.50;99.90;;;;;;15203382;23;20025;-36
2023/01/28 04:02:59;;;;;;;5.18;2.50;;;0.60;99.90;;;;;;15199275;23;20473;-36
2023/01/28 04:09:04;;;;;;;4.88;2.60;;;0.50;99.90;;;;;;15203322;23;20049;-36
2023/01/28 04:15:14;;;;;;;3.93;2.50;;;0.50;99.90;;;;;;15197932;23;20048;-36
2023/01/28 04:21:16;;;;;;;4.35;2.50;;;0.50;99.90;;;;;;15177343;23;20022;-37
2023/01/28 04:27:18;;;;;;;9.18;2.97;;;0.40;99.90;;;;;;15200384;23;20443;-36
2023/01/28 04:33:20;;;;;;;5.50;2.65;;;0.40;99.90;;;;;;15201412;23;20455;-36
2023/01/28 04:39:22;;;;;;;6.95;3.10;;;0.40;99.90;;;;;;15175167;23;20029;-36
2023/01/28 04:45:24;;;;;;;5.57;2.58;;;0.30;99.90;;;;;;15198355;23;20359;-36
2023/01/28 04:51:26;;;;;;;5.90;2.75;;;0.30;99.90;;;;;;15193428;23;20049;-36
2023/01/28 04:57:28;;;;;;;3.85;2.75;;;0.30;99.90;;;;;;15200193;23;20065;-36
2023/01/28 05:03:30;;;;;;;6.55;2.80;;;0.30;99.90;;;;;;15197040;23;20029;-36
2023/01/28 05:09:32;;;;;;;5.05;2.72;;;0.40;99.90;;;;;;15196938;23;20022;-36
2023/01/28 05:15:34;;;;;;;4.72;2.67;;;0.40;99.90;;;;;;15197619;23;20189;-37
2023/01/28 05:21:36;;;;;;;4.90;2.97;;;0.30;99.90;;;;;;15196790;23;20026;-36
2023/01/28 05:27:38;;;;;;;6.55;2.72;;;0.30;99.90;;;;;;15171583;23;20022;-36
2023/01/28 05:33:40;;;;;;;4.90;2.40;;;0.30;99.90;;;;;;15197330;23;20462;-36
2023/01/28 05:39:42;;;;;;;3.38;2.08;;;0.30;99.90;;;;;;15199583;23;20065;-36
2023/01/28 05:45:44;;;;;;;2.50;1.75;;;0.20;99.90;;;;;;15168007;23;20032;-36
2023/01/28 05:51:47;;;;;;;6.18;2.33;;;0.20;99.90;;;;;;15196369;23;20026;-36
2023/01/28 05:57:49;;;;;;;3.95;2.78;;;0.20;99.90;;;;;;15194988;23;20025;-36
2023/01/28 06:03:51;;;;;;;3.88;2.58;;;0.10;99.90;;;;;;15199255;23;20089;-36
2023/01/28 06:09:53;;;;;;;7.05;2.58;;;0.20;99.90;;;;;;15170253;23;20135;-35
2023/01/28 06:15:55;;;;;;;4.43;2.63;;;0.30;99.90;;;;;;15194858;23;20881;-36
2023/01/28 06:21:56;;;;;;;4.18;2.40;;;0.20;99.90;;;;;;15198795;23;20029;-36
2023/01/28 06:27:58;;;;;;;3.25;2.17;;;0.20;99.90;;;;;;15200619;23;20061;-36
2023/01/28 06:34:00;;;;;;;4.65;3.20;;;0.20;99.90;;;;;;15202988;23;20030;-36
2023/01/28 06:40:03;;;;;;;5.43;3.00;;;0.00;99.90;;;;;;15202020;23;20101;-35
2023/01/28 06:46:05;;;;;;;4.05;2.75;;;0.10;99.90;;;;;;15200702;23;20037;-36
2023/01/28 06:52:07;;;;;;;3.88;2.72;;;0.20;99.90;;;;;;15201229;23;20033;-36
2023/01/28 06:58:08;;;;;;;6.75;3.05;;;0.10;99.90;;;;;;15202074;23;20336;-36
2023/01/28 07:04:10;;;;;;;5.20;2.85;;;0.10;99.90;;;;;;15194180;23;20038;-36
2023/01/28 07:10:12;;;;;;;6.00;2.70;;;0.10;99.90;;;;;;15200143;23;20359;-36
2023/01/28 07:16:16;;;;;;;6.22;4.65;;;0.10;99.90;;;;;;15203411;23;20081;-36
2023/01/28 07:22:19;;;;;;;7.53;3.92;;;0.00;99.90;;;;;;15203529;23;20096;-36
2023/01/28 07:28:21;;;;;;;6.15;3.35;;;0.00;99.90;;;;;;15171406;23;20026;-36
2023/01/28 07:34:23;;;;;;;7.13;3.47;;;0.10;99.90;;;;;;15202063;23;20363;-36
2023/01/28 07:40:26;;;;;;;6.53;3.75;;;0.20;99.90;;;;;;15198730;23;20018;-35
2023/01/28 07:46:29;;;;;;;6.60;3.40;;;0.20;99.90;;;;;;15199752;23;20073;-36
2023/01/28 07:52:36;;;;;;;6.95;3.83;;;0.30;99.90;;;;;;15197077;23;20410;-36
2023/01/28 07:58:38;;;;;;;5.32;3.78;;;0.20;99.90;;;;;;15174531;23;20030;-36
2023/01/28 08:04:40;;;;;;;8.25;4.45;;;0.30;99.90;;;;;;15201609;23;20025;-36
2023/01/28 08:10:43;;;;;;;7.22;4.30;;;0.30;99.90;;;;;;15199935;23;20093;-36
2023/01/28 08:16:45;;;;;;;6.45;3.78;;;0.40;99.90;;;;;;15201893;23;20041;-36
2023/01/28 08:22:47;;;;;;;7.78;4.78;;;0.60;99.90;;;;;;15199988;23;20026;-35
2023/01/28 08:28:49;;;;;;;6.05;3.53;;;0.50;99.90;;;;;;15194575;23;20451;-35
2023/01/28 08:34:52;;;;;;;6.43;3.20;;;0.60;99.90;;;;;;15201830;23;20030;-36
2023/01/28 08:40:56;;;;;;;8.25;4.18;;;0.60;99.90;;;;;;15198312;23;20100;-36
2023/01/28 08:46:58;;;;;;;5.47;3.58;;;0.60;99.90;;;;;;15192157;23;20062;-35
2023/01/28 08:53:09;;;;;;;4.35;3.05;;;0.50;99.90;;;;;;15169274;23;20057;-35
2023/01/28 08:59:11;;;;;;;7.95;3.85;;;0.70;99.90;;;;;;15193786;23;20025;-35
2023/01/28 09:05:14;;;;;;;5.63;4.15;;;0.60;99.90;;;;;;15199260;23;20033;-36
2023/01/28 09:11:15;;;;;;;8.00;4.90;;;0.70;99.90;;;;;;15197888;23;20347;-35
2023/01/28 09:17:18;;;;;;;6.70;4.80;;;0.60;99.90;;;;;;15196746;23;20515;-36
2023/01/28 09:23:20;;;;;;;6.50;4.18;;;0.60;99.90;;;;;;15204099;23;20095;-36
2023/01/28 09:29:22;;;;;;;7.13;5.05;;;0.60;99.90;;;;;;15197349;23;20463;-35
2023/01/28 09:35:25;;;;;;;7.50;4.63;;;0.60;99.90;;;;;;15201524;23;20108;-35
2023/01/28 09:41:45;;;;;;;6.20;3.83;;;0.50;99.90;;;;;;15174788;23;20029;-36
2023/01/28 09:47:54;;;;;;;7.38;4.35;;;0.60;99.90;;;;;;15192344;23;20029;-36
2023/01/28 09:54:00;;;;;;;6.07;4.00;;;0.60;99.90;;;;;;15194644;23;20364;-36
2023/01/28 10:00:13;;;;;;;6.13;3.83;;;0.60;99.90;;;;;;15200052;23;20026;-36
2023/01/28 10:06:42;;;;;;;5.10;4.07;;;0.50;99.90;;;;;;15202062;23;20379;-36
2023/01/28 10:12:44;;;;;;;6.05;4.07;;;0.50;99.90;;;;;;15160233;23;20046;-37
2023/01/28 10:19:01;;;;;;;6.18;3.70;;;0.90;99.90;;;;;;15205816;23;20387;-36
2023/01/28 10:25:14;;;;;;;5.63;4.22;;;1.00;99.90;;;;;;15198895;23;20030;-36
2023/01/28 10:31:16;;;;;;;6.18;3.80;;;1.10;99.90;;;;;;15202356;23;20018;-36
2023/01/28 10:37:19;;;;;;;5.05;3.42;;;1.30;99.90;;;;;;15201642;23;20025;-36
2023/01/28 10:43:23;;;;;;;4.80;3.42;;;1.10;99.90;;;;;;15200836;23;20359;-36
2023/01/28 10:49:28;;;;;;;5.27;3.70;;;1.00;99.90;;;;;;15193850;23;20093;-36
2023/01/28 10:55:50;;;;;;;;;;;1.00;99.90;;;;;;15198252;23;20341;-35
2023/01/28 11:01:59;;;;;;;5.88;4.40;;;0.80;99.90;;;;;;15203187;23;19945;-35
2023/01/28 11:08:15;;;;;;;5.38;4.55;;;0.80;99.90;;;;;;15196589;23;20033;-36
2023/01/28 11:14:25;;;;;;;7.10;4.32;;;1.00;99.90;;;;;;15202854;23;20156;-35
2023/01/28 11:20:33;;;;;;;6.82;4.63;;;0.80;99.90;;;;;;15203445;23;20018;-35
2023/01/28 11:26:38;;;;;;;6.20;4.78;;;1.10;99.90;;;;;;15200651;23;20018;-35
2023/01/28 11:32:40;;;;;;;;;;;1.00;99.90;;;;;;15167688;23;20471;-36
2023/01/28 11:38:56;;;;;;;8.25;4.95;;;1.70;99.90;;;;;;15203987;23;19928;-36
2023/01/28 11:44:59;;;;;;;8.85;5.32;;;2.10;99.90;;;;;;15199664;23;20462;-35
2023/01/28 11:51:16;;;;;;;6.57;4.88;;;2.00;99.90;;;;;;15187470;23;20152;-36
2023/01/28 11:57:34;;;;;;;7.88;5.47;;;2.40;99.90;;;;;;15199982;23;20053;-36
2023/01/28 12:04:21;;;;;;;6.70;5.05;;;2.60;99.90;;;;;;15199722;23;20097;-35
2023/01/28 12:10:35;;;;;;;8.82;5.85;;;2.20;99.90;;;;;;15197919;23;20030;-35
2023/01/28 12:17:31;;;;;;;7.77;5.47;;;2.00;99.90;;;;;;15197072;23;20026;-36
2023/01/28 12:23:36;;;;;;;;;;;2.40;99.90;;;;;;15034722;23;20104;-35
2023/01/28 12:29:54;;;;;;;6.30;4.95;;;2.30;99.90;;;;;;15196383;23;20018;-35
2023/01/28 12:36:36;;;;;;;6.80;4.70;;;2.50;99.90;;;;;;15192941;23;20054;-35
2023/01/28 12:42:47;;;;;;;6.40;4.70;;;2.40;99.90;;;;;;15199207;23;20030;-36
2023/01/28 12:48:57;;;;;;;6.43;5.20;;;2.40;99.90;;;;;;15193385;23;20022;-35
2023/01/28 12:55:13;;;;;;;9.23;5.05;;;3.10;99.90;;;;;;15199684;23;20074;-35
2023/01/28 13:01:24;;;;;;;6.65;4.72;;;3.00;99.90;;;;;;15196312;23;20022;-36
2023/01/28 13:07:53;;;;;;;7.18;4.72;;;2.40;99.90;;;;;;15185949;23;20045;-36
2023/01/28 13:13:55;;;;;;;6.47;5.30;;;2.40;99.90;;;;;;15200157;23;20400;-37
2023/01/28 13:19:58;;;;;;;7.70;5.40;;;2.40;99.90;;;;;;15203622;23;20022;-37
2023/01/28 13:26:18;;;;;;;5.50;4.40;;;2.40;99.90;;;;;;15199616;23;20026;-36
2023/01/28 13:32:33;;;;;;;7.80;5.10;;;2.10;99.90;;;;;;15197681;23;20018;-37
2023/01/28 13:38:35;;;;;;;;;;;1.90;99.90;;;;;;15203097;23;20018;-37
2023/01/28 13:44:38;;;;;;;7.82;5.55;;;2.30;99.90;;;;;;15198857;23;19960;-37
2023/01/28 13:50:42;;;;;;;8.48;5.30;;;2.10;99.90;;;;;;15200803;23;20105;-37
2023/01/28 13:56:59;;;;;;;11.80;5.73;;;2.20;99.90;;;;;;15205249;23;20097;-37
2023/01/28 14:03:20;;;;;;;8.73;5.50;;;2.10;99.90;;;;;;15199816;23;20419;-35
2023/01/28 14:09:37;;;;;;;9.23;5.43;;;1.80;99.90;;;;;;15199558;23;20026;-35
2023/01/28 14:15:54;;;;;;;6.28;4.70;;;1.70;99.90;;;;;;15201789;23;20730;-37
2023/01/28 14:21:56;;;;;;;11.70;5.53;;;1.50;99.90;;;;;;15202071;23;20021;-36
2023/01/28 14:28:01;;;;;;;9.05;5.80;;;1.50;99.90;;;;;;15197406;23;20026;-36
2023/01/28 14:34:31;;;;;;;9.90;6.10;;;1.40;99.90;;;;;;15175883;23;20168;-36
2023/01/28 14:40:37;;;;;;;9.23;5.97;;;1.50;99.90;;;;;;15201481;23;20119;-36
2023/01/28 14:46:50;;;;;;;9.45;5.75;;;1.50;99.90;;;;;;15203785;23;20104;-35
2023/01/28 14:53:18;;;;;;;6.22;4.88;;;1.50;99.90;;;;;;15197665;23;20414;-36
2023/01/28 14:59:36;;;;;;;9.80;5.20;;;1.40;99.90;;;;;;15203356;23;20444;-36
2023/01/28 15:05:38;;;;;;;7.43;5.55;;;1.40;99.90;;;;;;15198657;23;20026;-35
2023/01/28 15:11:43;;;;;;;9.40;6.55;;;1.20;99.90;;;;;;15201028;23;20032;-36
2023/01/28 15:17:47;;;;;;;9.10;6.00;;;1.20;99.90;;;;;;15204351;23;20093;-35
2023/01/28 15:23:55;;;;;;;11.02;6.70;;;1.20;99.90;;;;;;15199578;23;20076;-36
2023/01/28 15:29:58;;;;;;;12.35;6.82;;;1.00;99.90;;;;;;15203002;23;20022;-36
2023/01/28 15:36:01;;;;;;;9.40;6.53;;;1.10;99.90;;;;;;15200105;23;20033;-35
2023/01/28 15:42:06;;;;;;;12.05;7.15;;;1.10;99.90;;;;;;15176942;23;20026;-35
2023/01/28 15:48:10;;;;;;;;;;;0.90;99.90;;;;;;15201205;23;20100;-36
2023/01/28 15:54:12;;;;;;;8.97;6.53;;;0.80;99.90;;;;;;15198021;23;20260;-35
2023/01/28 16:00:19;;;;;;;9.60;6.60;;;0.60;99.90;;;;;;15171688;23;20081;-36
2023/01/28 16:06:21;;;;;;;10.55;6.78;;;0.40;99.90;;;;;;15204067;23;20018;-36
2023/01/28 16:12:25;;;;;;;14.00;7.82;;;0.30;99.90;;;;;;15201873;23;20033;-36
2023/01/28 16:18:49;;;;;;;12.55;8.48;;;0.20;99.90;;;;;;15201936;23;20025;-36
2023/01/28 16:24:52;;;;;;;14.32;7.88;;;0.10;99.90;;;;;;15192797;23;20034;-36
2023/01/28 16:30:56;;;;;;;13.65;8.70;;;0.10;99.90;;;;;;15199958;23;20355;-36
2023/01/28 16:36:59;;;;;;;13.70;8.13;;;0.10;99.90;;;;;;15198365;23;20037;-36
2023/01/28 16:43:01;;;;;;;12.40;8.15;;;-0.10;99.90;;;;;;15200847;23;20022;-37
2023/01/28 16:49:03;;;;;;;14.35;8.35;;;-0.20;99.90;;;;;;15203097;23;20022;-36
2023/01/28 16:55:09;;;;;;;16.80;8.93;;;-0.30;99.90;;;;;;15200646;23;20025;-36
2023/01/28 17:01:11;;;;;;;14.80;8.85;;;-0.30;99.90;;;;;;15199048;23;20340;-35
2023/01/28 17:07:13;;;;;;;17.30;10.00;;;-0.40;99.90;;;;;;15202453;23;20036;-36
2023/01/28 17:13:15;;;;;;;16.17;9.27;;;-0.50;99.90;;;;;;15198575;23;20037;-36
2023/01/28 17:19:17;;;;;;;15.75;9.35;;;-0.60;99.90;;;;;;15200830;23;20026;-36
2023/01/28 17:25:20;;;;;;;15.25;9.65;;;-0.60;99.90;;;;;;15196580;23;20029;-36
2023/01/28 17:31:22;;;;;;;15.70;9.52;;;-0.60;99.90;;;;;;15170560;23;20026;-36
2023/01/28 17:37:24;;;;;;;15.70;9.57;;;-0.70;99.90;;;;;;15197489;23;20061;-36
2023/01/28 17:43:26;;;;;;;16.38;10.98;;;-0.70;99.90;;;;;;15200857;23;20086;-36
2023/01/28 17:49:28;;;;;;;18.73;10.55;;;-0.70;99.90;;;;;;15191784;23;20101;-36
2023/01/28 17:55:33;;;;;;;16.52;9.43;;;-0.80;99.90;;;;;;15170278;23;20049;-36
2023/01/28 18:01:36;;;;;;;17.67;10.40;;;-0.80;99.90;;;;;;15201050;23;20096;-36
2023/01/28 18:07:38;;;;;;;19.02;11.38;;;-0.80;99.90;;;;;;15196997;23;20026;-36
2023/01/28 18:13:40;;;;;;;18.00;10.30;;;-0.90;99.90;;;;;;15173578;23;20100;-35
2023/01/28 18:19:42;;;;;;;15.68;9.50;;;-0.80;99.90;;;;;;15173846;23;20129;-36
2023/01/28 18:25:44;;;;;;;19.58;9.93;;;-0.80;99.90;;;;;;15174278;23;20034;-35
2023/01/28 18:31:47;;;;;;;16.15;9.05;;;-0.80;99.90;;;;;;15202354;23;20031;-36
2023/01/28 18:37:49;;;;;;;16.75;8.88;;;-0.70;99.90;;;;;;15203802;23;20021;-36
2023/01/28 18:43:51;;;;;;;18.50;9.48;;;-0.70;99.90;;;;;;15178106;23;20081;-36
2023/01/28 18:49:52;;;;;;;19.08;8.98;;;-0.80;99.90;;;;;;15172958;23;20025;-36
2023/01/28 18:55:54;;;;;;;13.27;8.20;;;-0.80;99.90;;;;;;15202622;23;20486;-36
2023/01/28 19:01:56;;;;;;;14.02;8.80;;;-0.80;99.90;;;;;;15202709;23;20033;-36
2023/01/28 19:07:58;;;;;;;18.75;9.98;;;-0.80;99.90;;;;;;15200663;23;20037;-36
2023/01/28 19:14:00;;;;;;;19.98;10.32;;;-0.80;99.90;;;;;;15200549;23;20459;-36
2023/01/28 19:20:02;;;;;;;19.10;9.93;;;-0.90;99.90;;;;;;15203317;23;20112;-36
2023/01/28 19:26:05;;;;;;;19.00;9.93;;;-0.90;99.90;;;;;;15203487;23;20387;-36
2023/01/28 19:32:06;;;;;;;19.55;10.55;;;-0.80;99.90;;;;;;15199977;23;20164;-36
2023/01/28 19:38:08;;;;;;;20.73;10.93;;;-0.70;99.90;;;;;;15201727;23;20037;-36
2023/01/28 19:44:10;;;;;;;20.38;10.93;;;-0.60;99.90;;;;;;15200954;23;20069;-36
2023/01/28 19:50:13;;;;;;;19.13;11.80;;;-0.60;99.90;;;;;;15202627;23;20455;-36
2023/01/28 19:56:17;;;;;;;18.42;11.43;;;-0.50;99.90;;;;;;15200226;23;20452;-36
2023/01/28 20:02:19;;;;;;;22.67;13.13;;;-0.50;99.90;;;;;;15202160;23;20083;-35
2023/01/28 20:08:20;;;;;;;20.90;12.27;;;-0.40;99.90;;;;;;15199805;23;20022;-36
2023/01/28 20:14:22;;;;;;;23.45;13.13;;;-0.30;99.90;;;;;;15201718;23;20082;-36
2023/01/28 20:20:24;;;;;;;23.77;13.07;;;-0.30;99.90;;;;;;15201276;23;20130;-36
2023/01/28 20:26:32;;;;;;;20.80;11.68;;;-0.30;99.90;;;;;;15197786;23;20443;-36
2023/01/28 20:32:34;;;;;;;20.85;12.13;;;-0.30;99.90;;;;;;15196266;23;20030;-37
2023/01/28 20:38:42;;;;;;;21.80;12.45;;;-0.30;99.90;;;;;;15201486;23;20478;-36
2023/01/28 20:44:44;;;;;;;21.65;13.15;;;-0.30;99.90;;;;;;15199628;23;20456;-36
2023/01/28 20:50:46;;;;;;;21.92;13.65;;;-0.30;99.90;;;;;;15195734;23;20388;-36
2023/01/28 20:56:49;;;;;;;20.98;12.57;;;-0.30;99.90;;;;;;15201146;23;20502;-35
2023/01/28 21:02:51;;;;;;;21.75;12.88;;;-0.30;99.90;;;;;;15197017;23;20026;-36
2023/01/28 21:08:53;;;;;;;23.17;13.05;;;-0.20;99.90;;;;;;15197208;23;20024;-37
2023/01/28 21:14:56;;;;;;;22.58;12.93;;;-0.20;99.90;;;;;;15200230;23;20422;-36
2023/01/28 21:21:13;;;;;;;22.80;13.18;;;-0.20;99.90;;;;;;15201356;23;20049;-36
2023/01/28 21:27:15;;;;;;;22.63;12.93;;;-0.20;99.90;;;;;;15197825;23;20076;-36
2023/01/28 21:33:17;;;;;;;23.13;13.07;;;-0.20;99.90;;;;;;15195203;23;20022;-36
2023/01/28 21:39:19;;;;;;;23.88;13.55;;;-0.10;99.90;;;;;;15201044;23;20112;-36
2023/01/28 21:45:21;;;;;;;22.45;12.82;;;-0.20;99.90;;;;;;15198339;23;20032;-36
2023/01/28 21:51:36;;;;;;;22.02;13.20;;;-0.20;99.90;;;;;;15172310;23;20113;-36
2023/01/28 21:57:38;;;;;;;22.23;12.77;;;-0.20;99.90;;;;;;15205842;23;20033;-35
2023/01/28 22:03:41;;;;;;;21.55;13.23;;;-0.20;99.90;;;;;;15181214;23;20355;-36
2023/01/28 22:09:44;;;;;;;23.00;13.82;;;-0.10;99.90;;;;;;15199784;23;20026;-36
2023/01/28 22:15:46;;;;;;;22.90;13.45;;;-0.20;99.90;;;;;;15177945;23;20116;-36
2023/01/28 22:21:48;;;;;;;24.40;14.63;;;-0.10;99.90;;;;;;15203921;23;20538;-36
2023/01/28 22:27:49;;;;;;;23.02;13.05;;;-0.10;99.90;;;;;;15196767;23;20104;-36
2023/01/28 22:33:51;;;;;;;23.73;13.77;;;-0.10;99.90;;;;;;15202015;23;20044;-36
2023/01/28 22:39:53;;;;;;;24.23;14.68;;;-0.10;99.90;;;;;;15204972;23;20033;-36
2023/01/28 22:46:02;;;;;;;25.55;13.75;;;-0.10;99.90;;;;;;15169587;23;20029;-36
2023/01/28 22:52:04;;;;;;;26.30;14.45;;;-0.10;99.90;;;;;;15201017;23;20058;-36
2023/01/28 22:58:08;;;;;;;25.85;13.95;;;-0.10;99.90;;;;;;15177143;23;20101;-36
2023/01/28 23:04:10;;;;;;;24.00;14.40;;;-0.10;99.90;;;;;;15201249;23;20026;-37
2023/01/28 23:10:12;;;;;;;27.02;15.23;;;-0.20;99.90;;;;;;15199563;23;20026;-36
2023/01/28 23:28:55;;;;;;;23.98;14.20;;;-0.20;99.90;;;;;;15196976;23;20088;-35
2023/01/28 23:34:57;;;;;;;26.67;14.75;;;-0.20;99.90;;;;;;15200809;23;20176;-37
2023/01/28 23:40:59;;;;;;;28.48;15.43;;;-0.20;99.90;;;;;;15205892;23;20025;-36
2023/01/28 23:47:01;;;;;;;26.45;15.20;;;-0.20;99.90;;;;;;15201282;23;20022;-36
2023/01/28 23:53:04;;;;;;;30.88;16.70;;;-0.20;99.90;;;;;;15202259;23;20025;-35
2023/01/28 23:59:06;;;;;;;31.73;15.60;;;-0.30;99.90;;;;;;15197757;23;20022;-35
